Time;durP1;ratioP1;P1;durP2;ratioP2;P2;SDS_P1;SDS_P2;PMS_P1;PMS_P2;Temp;Humidity;BMP_temperature;BMP_pressure;BME280_temperature;BME280_humidity;BME280_pressure;Samples;Min_cycle;Max_cycle;Signal;HPM_P1;HPM_P2
2023/04/19 00:01:00;;;;;;;21.27;15.73;;;11.40;99.90;;;;;;5064083;28;20045;-55
2023/04/19 00:03:29;;;;;;;20.60;15.48;;;11.50;99.90;;;;;;5058418;28;20032;-54
2023/04/19 00:05:57;;;;;;;20.83;15.95;;;11.40;99.90;;;;;;5058355;28;20066;-55
2023/04/19 00:08:23;;;;;;;22.52;16.70;;;11.50;99.90;;;;;;5061597;28;20554;-55
2023/04/19 00:10:49;;;;;;;20.55;15.48;;;11.40;99.90;;;;;;5060377;28;20033;-54
2023/04/19 00:13:14;;;;;;;22.70;15.70;;;11.30;99.90;;;;;;5066379;28;20120;-55
2023/04/19 00:15:40;;;;;;;21.25;16.08;;;11.30;99.90;;;;;;5055806;28;20123;-55
2023/04/19 00:18:06;;;;;;;21.20;15.63;;;11.30;99.90;;;;;;5059249;28;20037;-54
2023/04/19 00:20:31;;;;;;;23.73;16.63;;;11.30;99.90;;;;;;5059305;28;20041;-52
2023/04/19 00:22:58;;;;;;;20.65;15.95;;;11.30;99.90;;;;;;5062601;28;20391;-56
2023/04/19 00:25:24;;;;;;;20.95;16.42;;;11.40;99.90;;;;;;5055400;28;20446;-54
2023/04/19 00:27:49;;;;;;;21.52;16.33;;;11.30;99.90;;;;;;5062655;28;20032;-54
2023/04/19 00:30:15;;;;;;;21.75;17.33;;;11.30;99.90;;;;;;5058410;28;20106;-53
2023/04/19 00:32:40;;;;;;;19.55;15.63;;;11.40;99.90;;;;;;5055559;28;20051;-55
2023/04/19 00:35:06;;;;;;;21.35;16.67;;;11.30;99.90;;;;;;5056363;28;20092;-54
2023/04/19 00:37:32;;;;;;;24.10;17.38;;;11.30;99.90;;;;;;5053013;28;20059;-53
2023/04/19 00:39:57;;;;;;;22.48;17.25;;;11.30;99.90;;;;;;5056347;28;20068;-55
2023/04/19 00:42:23;;;;;;;25.40;17.58;;;11.30;99.90;;;;;;5054848;28;20043;-55
2023/04/19 00:44:49;;;;;;;23.08;17.38;;;11.40;99.90;;;;;;5069795;28;20033;-55
2023/04/19 00:47:14;;;;;;;24.40;17.00;;;11.50;99.90;;;;;;5065522;28;20043;-55
2023/04/19 00:49:40;;;;;;;22.20;17.15;;;11.40;99.90;;;;;;5062019;28;20492;-52
2023/04/19 00:52:07;;;;;;;22.33;17.13;;;11.30;99.90;;;;;;5057155;28;20114;-54
2023/04/19 00:54:33;;;;;;;24.13;16.88;;;11.30;99.90;;;;;;5065391;28;20078;-55
2023/04/19 00:56:58;;;;;;;22.27;16.50;;;11.20;99.90;;;;;;5069624;27;20180;-54
2023/04/19 00:59:24;;;;;;;24.38;17.60;;;11.30;99.90;;;;;;5054800;28;20063;-54
2023/04/19 01:01:50;;;;;;;22.15;17.33;;;11.30;99.90;;;;;;5064565;28;20029;-54
2023/04/19 01:04:16;;;;;;;25.70;18.23;;;11.30;99.90;;;;;;5057879;28;20043;-55
2023/04/19 01:06:41;;;;;;;22.48;16.95;;;11.30;99.90;;;;;;5059972;28;20395;-55
2023/04/19 01:09:08;;;;;;;22.52;17.63;;;11.40;99.90;;;;;;5055974;28;20124;-55
2023/04/19 01:11:33;;;;;;;25.60;17.88;;;11.40;99.90;;;;;;5062484;28;20036;-55
2023/04/19 01:13:59;;;;;;;25.75;18.38;;;11.50;99.90;;;;;;5068522;28;20044;-55
2023/04/19 01:16:25;;;;;;;23.17;18.38;;;11.50;99.90;;;;;;5066734;28;20040;-54
2023/04/19 01:18:51;;;;;;;23.13;18.45;;;11.50;99.90;;;;;;5059978;28;20160;-54
2023/04/19 01:21:17;;;;;;;25.35;18.73;;;11.50;99.90;;;;;;5064141;28;20086;-54
2023/04/19 01:23:43;;;;;;;21.92;18.02;;;11.40;99.90;;;;;;5066580;28;20516;-54
2023/04/19 01:26:08;;;;;;;25.13;18.27;;;11.40;99.90;;;;;;5068966;28;20063;-55
2023/04/19 01:28:34;;;;;;;22.20;18.17;;;11.50;99.90;;;;;;5066151;28;20149;-53
2023/04/19 01:31:00;;;;;;;24.13;18.58;;;11.50;99.90;;;;;;5059946;28;20044;-54
2023/04/19 01:33:25;;;;;;;21.23;16.73;;;11.50;99.90;;;;;;5046997;28;20036;-54
2023/04/19 01:35:51;;;;;;;20.60;17.88;;;11.50;99.90;;;;;;5070842;28;20085;-55
2023/04/19 01:38:17;;;;;;;22.02;16.73;;;11.50;99.90;;;;;;5064570;28;20036;-55
2023/04/19 01:40:43;;;;;;;23.58;17.77;;;11.50;99.90;;;;;;5069529;28;20048;-55
2023/04/19 01:43:15;;;;;;;21.63;17.45;;;11.50;99.90;;;;;;5063570;28;20403;-55
2023/04/19 01:45:40;;;;;;;22.38;16.98;;;11.50;99.90;;;;;;5058424;28;20036;-55
2023/04/19 01:48:06;;;;;;;24.17;17.50;;;11.60;99.90;;;;;;5056687;28;20094;-55
2023/04/19 01:50:32;;;;;;;21.58;17.63;;;11.60;99.90;;;;;;5059879;28;20492;-55
2023/04/19 01:52:58;;;;;;;21.17;17.20;;;11.60;99.90;;;;;;5057549;28;20056;-55
2023/04/19 01:55:24;;;;;;;20.25;15.65;;;11.60;99.90;;;;;;5057874;28;20037;-55
2023/04/19 01:57:51;;;;;;;22.00;16.50;;;11.50;99.90;;;;;;5062894;27;20483;-56
2023/04/19 02:00:17;;;;;;;21.88;17.20;;;11.60;99.90;;;;;;5066104;28;20068;-62
2023/04/19 02:02:43;;;;;;;20.15;16.85;;;11.70;99.90;;;;;;5076692;28;20052;-54
2023/04/19 02:05:09;;;;;;;19.77;15.70;;;11.60;99.90;;;;;;5056290;28;20484;-54
2023/04/19 02:07:35;;;;;;;22.95;15.68;;;11.50;99.90;;;;;;5064551;28;20339;-53
2023/04/19 02:10:00;;;;;;;22.15;16.33;;;11.50;99.90;;;;;;5069407;28;20040;-54
2023/04/19 02:12:30;;;;;;;23.98;16.30;;;11.60;99.90;;;;;;5065697;28;20039;-55
2023/04/19 02:15:00;;;;;;;22.90;16.67;;;11.70;99.90;;;;;;5060782;28;20111;-54
2023/04/19 02:17:27;;;;;;;21.85;16.05;;;11.60;99.90;;;;;;5064868;28;20037;-53
2023/04/19 02:19:53;;;;;;;22.42;16.10;;;11.70;99.90;;;;;;5062842;28;20139;-53
2023/04/19 02:22:19;;;;;;;21.40;16.20;;;11.70;99.90;;;;;;5053833;28;20048;-55
2023/04/19 02:24:46;;;;;;;20.38;16.30;;;11.60;99.90;;;;;;5071551;28;20698;-55
2023/04/19 02:27:12;;;;;;;20.48;16.38;;;11.60;99.90;;;;;;5063998;28;20033;-55
2023/04/19 02:29:38;;;;;;;25.48;16.02;;;11.70;99.90;;;;;;5061444;28;20063;-55
2023/04/19 02:32:05;;;;;;;26.50;16.55;;;11.60;99.90;;;;;;5059459;28;20124;-55
2023/04/19 02:34:32;;;;;;;23.58;16.33;;;11.50;99.90;;;;;;5060396;28;20053;-54
2023/04/19 02:36:57;;;;;;;20.33;16.02;;;11.50;99.90;;;;;;5066558;28;20510;-55
2023/04/19 02:39:23;;;;;;;25.27;16.67;;;11.60;99.90;;;;;;5057552;28;20138;-54
2023/04/19 02:41:49;;;;;;;22.60;17.42;;;11.60;99.90;;;;;;5066297;28;20349;-55
2023/04/19 02:44:15;;;;;;;21.25;16.10;;;11.40;99.90;;;;;;5061401;28;20063;-54
2023/04/19 02:46:40;;;;;;;20.67;16.92;;;11.40;99.90;;;;;;5059507;28;20036;-54
2023/04/19 02:49:06;;;;;;;20.35;15.50;;;11.30;99.90;;;;;;5056231;28;20475;-55
2023/04/19 02:51:32;;;;;;;22.45;16.55;;;11.30;99.90;;;;;;5063846;28;20097;-54
2023/04/19 02:53:57;;;;;;;19.27;15.07;;;11.20;99.90;;;;;;5065157;28;20087;-53
2023/04/19 02:56:23;;;;;;;21.73;15.32;;;11.10;99.90;;;;;;5062777;28;20376;-54
2023/04/19 02:58:48;;;;;;;20.52;15.05;;;11.00;99.90;;;;;;5062517;28;20044;-53
2023/04/19 03:01:14;;;;;;;22.65;14.63;;;11.10;99.90;;;;;;5060197;28;20036;-55
2023/04/19 03:03:40;;;;;;;21.15;15.10;;;11.20;99.90;;;;;;5066279;28;20033;-53
2023/04/19 03:06:05;;;;;;;19.30;14.73;;;11.00;99.90;;;;;;5063783;28;20052;-55
2023/04/19 03:08:31;;;;;;;22.00;15.88;;;10.90;99.90;;;;;;5062274;28;20683;-55
2023/04/19 03:10:57;;;;;;;20.75;15.05;;;10.90;99.90;;;;;;5060666;28;20024;-55
2023/04/19 03:13:23;;;;;;;21.83;16.25;;;10.80;99.90;;;;;;5052637;28;20040;-55
2023/04/19 03:15:49;;;;;;;22.50;15.88;;;10.70;99.90;;;;;;5055780;28;20032;-53
2023/04/19 03:18:16;;;;;;;20.83;15.43;;;10.60;99.90;;;;;;5061736;28;20028;-55
2023/04/19 03:20:41;;;;;;;21.58;15.80;;;10.80;99.90;;;;;;5064175;28;20051;-55
2023/04/19 03:23:07;;;;;;;20.90;15.63;;;10.90;99.90;;;;;;5063790;28;20385;-55
2023/04/19 03:25:33;;;;;;;19.17;14.68;;;10.90;99.90;;;;;;5057323;28;20090;-55
2023/04/19 03:27:58;;;;;;;20.85;15.98;;;11.00;99.90;;;;;;5058064;28;20044;-54
2023/04/19 03:30:24;;;;;;;19.63;15.02;;;11.00;99.90;;;;;;5057282;28;20048;-55
2023/04/19 03:32:50;;;;;;;19.20;14.73;;;10.90;99.90;;;;;;5063257;28;20036;-55
2023/04/19 03:35:16;;;;;;;20.67;14.75;;;10.70;99.90;;;;;;5067749;28;20040;-55
2023/04/19 03:37:42;;;;;;;22.33;14.18;;;10.80;99.90;;;;;;5066302;28;20032;-53
2023/04/19 03:40:08;;;;;;;17.83;13.60;;;10.70;99.90;;;;;;5066885;28;20039;-54
2023/04/19 03:42:34;;;;;;;18.27;12.73;;;10.80;99.90;;;;;;5061866;28;20044;-54
2023/04/19 03:45:00;;;;;;;18.67;12.93;;;10.80;99.90;;;;;;5066003;28;20035;-55
2023/04/19 03:47:25;;;;;;;17.88;13.27;;;10.70;99.90;;;;;;5062183;28;20123;-55
2023/04/19 03:49:51;;;;;;;16.45;12.65;;;10.70;99.90;;;;;;5052376;28;20133;-54
2023/04/19 03:52:16;;;;;;;16.55;11.68;;;10.80;99.90;;;;;;5058417;28;20127;-55
2023/04/19 03:54:42;;;;;;;15.93;11.88;;;10.90;99.90;;;;;;5053468;28;20033;-53
2023/04/19 03:57:07;;;;;;;17.13;12.27;;;11.00;99.90;;;;;;5051862;28;20431;-53
2023/04/19 03:59:34;;;;;;;14.38;11.20;;;10.80;99.90;;;;;;5060840;28;20118;-55
2023/04/19 04:01:59;;;;;;;16.90;11.55;;;10.80;99.90;;;;;;5068338;28;20046;-54
2023/04/19 04:04:25;;;;;;;17.70;11.80;;;10.90;99.90;;;;;;5055402;28;20045;-54
2023/04/19 04:06:50;;;;;;;15.27;10.88;;;10.80;99.90;;;;;;5071222;28;20119;-50
2023/04/19 04:09:16;;;;;;;14.10;9.88;;;10.70;99.90;;;;;;5064292;28;20082;-54
2023/04/19 04:11:41;;;;;;;15.55;10.50;;;10.70;99.90;;;;;;5067305;28;20059;-55
2023/04/19 04:14:07;;;;;;;13.23;10.00;;;10.70;99.90;;;;;;5057995;28;20167;-55
2023/04/19 04:16:32;;;;;;;11.80;9.10;;;10.80;99.90;;;;;;5060478;28;20095;-55
2023/04/19 04:18:58;;;;;;;13.10;8.80;;;10.80;99.90;;;;;;5061312;28;20147;-55
2023/04/19 04:21:25;;;;;;;10.60;8.70;;;10.80;99.90;;;;;;5059918;28;20039;-52
2023/04/19 04:23:52;;;;;;;11.68;8.43;;;10.80;99.90;;;;;;5071067;28;20140;-54
2023/04/19 04:26:19;;;;;;;11.52;8.90;;;10.90;99.90;;;;;;5073334;28;20052;-55
2023/04/19 04:28:45;;;;;;;10.38;7.68;;;11.00;99.90;;;;;;5070851;28;20224;-51
2023/04/19 04:31:11;;;;;;;13.15;8.13;;;10.80;99.90;;;;;;5055316;28;20391;-54
2023/04/19 04:33:37;;;;;;;10.40;8.05;;;10.90;99.90;;;;;;5075319;28;20059;-54
2023/04/19 04:36:04;;;;;;;10.57;7.65;;;10.90;99.90;;;;;;5068526;28;20421;-54
2023/04/19 04:38:30;;;;;;;10.70;7.43;;;11.00;99.90;;;;;;5068124;28;20489;-53
2023/04/19 04:40:57;;;;;;;9.70;6.75;;;10.80;99.90;;;;;;5077653;28;20454;-52
2023/04/19 04:43:24;;;;;;;9.57;7.22;;;10.70;99.90;;;;;;5054992;28;20068;-54
2023/04/19 04:45:50;;;;;;;10.23;7.07;;;10.80;99.90;;;;;;5064994;27;20094;-55
2023/04/19 04:48:16;;;;;;;9.82;7.03;;;10.90;99.90;;;;;;5065552;28;20029;-55
2023/04/19 04:50:42;;;;;;;8.55;6.43;;;10.80;99.90;;;;;;5072229;28;20035;-53
2023/04/19 04:53:08;;;;;;;7.53;5.82;;;10.50;99.90;;;;;;5073528;28;20025;-54
2023/04/19 04:55:35;;;;;;;12.02;6.45;;;10.50;99.90;;;;;;5071756;28;20492;-54
2023/04/19 04:58:00;;;;;;;7.28;5.40;;;10.60;99.90;;;;;;5069614;28;20028;-54
2023/04/19 05:00:26;;;;;;;8.23;5.68;;;10.50;99.90;;;;;;5073196;28;20924;-55
2023/04/19 05:02:52;;;;;;;9.23;5.50;;;10.50;99.90;;;;;;5068531;28;20040;-54
2023/04/19 05:05:17;;;;;;;9.48;5.82;;;10.40;99.90;;;;;;5059532;28;20067;-55
2023/04/19 05:07:43;;;;;;;7.75;6.22;;;10.40;99.90;;;;;;5073780;28;20032;-55
2023/04/19 05:10:09;;;;;;;8.82;6.03;;;10.50;99.90;;;;;;5071823;27;20119;-55
2023/04/19 05:12:36;;;;;;;9.70;6.75;;;10.60;99.90;;;;;;5073151;28;20028;-55
2023/04/19 05:15:01;;;;;;;9.82;6.65;;;10.50;99.90;;;;;;5069267;28;20151;-49
2023/04/19 05:17:27;;;;;;;13.77;7.10;;;10.50;99.90;;;;;;5067476;28;20520;-50
2023/04/19 05:19:52;;;;;;;9.73;6.95;;;10.40;99.90;;;;;;5076600;28;20036;-48
2023/04/19 05:22:18;;;;;;;10.82;7.03;;;10.60;99.90;;;;;;5060834;28;20047;-51
2023/04/19 05:24:44;;;;;;;10.60;6.88;;;10.60;99.90;;;;;;5066349;28;20036;-52
2023/04/19 05:27:10;;;;;;;12.60;6.90;;;10.60;99.90;;;;;;5064796;28;20114;-51
2023/04/19 05:29:35;;;;;;;10.82;7.38;;;10.40;99.90;;;;;;5066931;28;20511;-47
2023/04/19 05:32:01;;;;;;;9.68;6.65;;;10.40;99.90;;;;;;5065821;28;20040;-48
2023/04/19 05:34:26;;;;;;;9.30;6.25;;;10.40;99.90;;;;;;5068994;28;20517;-48
2023/04/19 05:36:52;;;;;;;12.50;6.47;;;10.40;99.90;;;;;;5075962;28;20028;-52
2023/04/19 05:39:18;;;;;;;10.60;6.40;;;10.50;99.90;;;;;;5066262;28;20028;-55
2023/04/19 05:41:43;;;;;;;11.25;6.57;;;10.50;99.90;;;;;;5070416;28;20033;-53
2023/04/19 05:44:09;;;;;;;9.73;6.80;;;10.60;99.90;;;;;;5067162;28;20663;-53
2023/04/19 05:46:35;;;;;;;8.45;6.28;;;10.70;99.90;;;;;;5069277;28;20035;-55
2023/04/19 05:49:01;;;;;;;9.82;6.40;;;10.60;99.90;;;;;;5071929;28;20036;-53
2023/04/19 05:51:27;;;;;;;10.77;7.30;;;10.80;99.90;;;;;;5059541;28;20116;-54
2023/04/19 05:53:53;;;;;;;13.30;7.18;;;10.70;99.90;;;;;;5063356;28;20144;-54
2023/04/19 05:56:18;;;;;;;15.30;7.18;;;10.70;99.90;;;;;;5058439;28;20072;-53
2023/04/19 05:58:44;;;;;;;12.50;7.57;;;10.70;99.90;;;;;;5065029;28;20219;-53
2023/04/19 06:01:10;;;;;;;11.95;7.63;;;10.60;99.90;;;;;;5070318;28;20153;-55
2023/04/19 06:03:35;;;;;;;9.57;7.22;;;10.70;99.90;;;;;;5063870;28;20048;-54
2023/04/19 06:06:01;;;;;;;13.70;7.55;;;10.70;99.90;;;;;;5064508;28;20021;-55
2023/04/19 06:08:26;;;;;;;10.90;6.60;;;10.80;99.90;;;;;;5078131;28;20123;-53
2023/04/19 06:10:54;;;;;;;9.75;7.22;;;10.80;99.90;;;;;;5061971;28;20405;-54
2023/04/19 06:13:20;;;;;;;12.98;7.28;;;10.60;99.90;;;;;;5058098;28;20411;-54
2023/04/19 06:15:46;;;;;;;9.98;6.75;;;10.60;99.90;;;;;;5056620;28;20029;-54
2023/04/19 06:18:12;;;;;;;11.10;7.53;;;10.60;99.90;;;;;;5056145;28;20754;-54
2023/04/19 06:20:38;;;;;;;9.20;6.88;;;10.60;99.90;;;;;;5061090;28;20040;-53
2023/04/19 06:23:05;;;;;;;12.30;7.57;;;10.60;99.90;;;;;;5062126;27;20439;-55
2023/04/19 06:25:30;;;;;;;10.32;6.65;;;10.70;99.90;;;;;;5061092;28;20400;-53
2023/04/19 06:27:56;;;;;;;48.80;32.03;;;10.60;99.90;;;;;;5066595;28;20043;-48
2023/04/19 06:30:21;;;;;;;11.57;7.00;;;10.50;99.90;;;;;;5065096;28;20127;-49
2023/04/19 06:32:47;;;;;;;11.10;6.90;;;10.50;99.90;;;;;;5069803;27;20056;-48
2023/04/19 06:35:13;;;;;;;11.93;6.43;;;10.40;99.90;;;;;;5060304;28;20204;-48
2023/04/19 06:37:39;;;;;;;15.38;6.90;;;10.50;99.90;;;;;;5073615;28;20037;-47
2023/04/19 06:40:07;;;;;;;15.25;6.95;;;10.60;99.90;;;;;;5072901;28;20040;-46
2023/04/19 06:42:33;;;;;;;13.93;6.97;;;10.80;99.90;;;;;;5067188;28;20209;-47
2023/04/19 06:44:59;;;;;;;11.35;6.97;;;10.70;99.90;;;;;;5074554;28;20043;-48
2023/04/19 06:47:24;;;;;;;10.98;7.13;;;10.70;99.90;;;;;;5063458;28;20033;-48
2023/04/19 06:49:50;;;;;;;9.57;6.78;;;10.60;99.90;;;;;;5064293;28;20044;-50
2023/04/19 06:52:16;;;;;;;10.82;6.20;;;10.60;99.90;;;;;;5054433;28;20811;-48
2023/04/19 06:54:41;;;;;;;11.27;6.63;;;10.70;99.90;;;;;;5058298;28;20040;-48
2023/04/19 06:57:07;;;;;;;13.48;6.22;;;10.70;99.90;;;;;;5073928;28;20041;-49
2023/04/19 06:59:32;;;;;;;14.68;5.60;;;10.90;99.90;;;;;;5073190;28;20044;-51
2023/04/19 07:01:58;;;;;;;8.38;4.88;;;10.80;99.90;;;;;;5067342;28;20036;-47
2023/04/19 07:04:25;;;;;;;13.73;5.35;;;10.60;99.90;;;;;;5075010;28;20141;-49
2023/04/19 07:06:51;;;;;;;7.70;5.05;;;10.50;99.90;;;;;;5061774;28;20039;-47
2023/04/19 07:09:17;;;;;;;9.70;5.75;;;10.40;99.90;;;;;;5054354;28;20024;-49
2023/04/19 07:11:42;;;;;;;8.60;5.15;;;10.40;99.90;;;;;;5068154;28;20050;-48
2023/04/19 07:14:08;;;;;;;8.75;5.93;;;10.40;99.90;;;;;;5067956;27;20023;-51
2023/04/19 07:16:33;;;;;;;8.48;5.30;;;10.60;99.90;;;;;;5068347;28;20178;-49
2023/04/19 07:18:59;;;;;;;11.43;5.85;;;10.80;99.90;;;;;;5074134;28;20124;-47
2023/04/19 07:21:29;;;;;;;9.10;6.07;;;10.90;99.90;;;;;;5065615;28;20031;-47
2023/04/19 07:23:54;;;;;;;9.13;5.90;;;10.90;99.90;;;;;;5071270;28;20045;-48
2023/04/19 07:26:20;;;;;;;11.05;5.45;;;11.10;99.90;;;;;;5054451;28;20037;-47
2023/04/19 07:28:45;;;;;;;10.25;6.10;;;11.20;99.90;;;;;;5056546;28;20075;-49
2023/04/19 07:31:18;;;;;;;11.48;5.75;;;11.10;99.90;;;;;;5068458;28;20639;-48
2023/04/19 07:33:44;;;;;;;9.57;5.80;;;11.10;99.90;;;;;;5072106;28;20111;-49
2023/04/19 07:36:10;;;;;;;13.40;5.43;;;10.90;99.90;;;;;;5074503;28;20101;-48
2023/04/19 07:38:35;;;;;;;11.23;6.20;;;11.10;99.90;;;;;;5071555;28;20131;-48
2023/04/19 07:41:02;;;;;;;9.05;5.72;;;11.30;99.90;;;;;;5068419;27;20033;-48
2023/04/19 07:43:29;;;;;;;19.15;11.07;;;11.60;99.90;;;;;;5060861;28;20138;-49
2023/04/19 07:45:54;;;;;;;37.40;24.60;;;11.50;99.90;;;;;;5066224;28;20167;-50
2023/04/19 07:48:20;;;;;;;10.57;5.88;;;11.70;99.90;;;;;;5059623;27;20052;-50
2023/04/19 07:50:46;;;;;;;9.45;5.90;;;11.70;99.90;;;;;;5063959;28;20038;-50
2023/04/19 07:53:11;;;;;;;9.35;5.55;;;11.80;99.90;;;;;;5071503;27;20178;-49
2023/04/19 07:55:40;;;;;;;8.48;5.15;;;11.70;99.90;;;;;;5061103;28;20021;-50
2023/04/19 07:58:05;;;;;;;8.05;5.75;;;11.70;99.90;;;;;;5056370;28;20469;-50
2023/04/19 08:00:33;;;;;;;12.35;6.18;;;11.80;99.90;;;;;;5055812;28;20783;-51
2023/04/19 08:02:59;;;;;;;10.65;5.38;;;11.90;99.90;;;;;;5071956;28;20442;-52
2023/04/19 08:05:26;;;;;;;9.68;5.65;;;11.70;99.90;;;;;;5069831;28;20089;-49
2023/04/19 08:07:52;;;;;;;8.13;5.15;;;11.80;99.90;;;;;;5079111;28;20142;-52
2023/04/19 08:10:18;;;;;;;9.85;5.63;;;12.00;99.90;;;;;;5058192;28;20180;-54
2023/04/19 08:12:43;;;;;;;11.30;5.43;;;12.30;99.90;;;;;;5059317;28;20039;-52
2023/04/19 08:15:09;;;;;;;11.73;5.53;;;12.30;99.90;;;;;;5062709;28;20033;-50
2023/04/19 08:17:35;;;;;;;9.85;4.97;;;11.90;99.90;;;;;;5069276;28;20060;-50
2023/04/19 08:20:05;;;;;;;8.10;5.10;;;11.90;99.90;;;;;;5068220;27;20120;-53
2023/04/19 08:22:31;;;;;;;8.90;5.07;;;12.10;99.90;;;;;;5061832;28;20442;-52
2023/04/19 08:24:56;;;;;;;10.20;5.03;;;12.20;99.90;;;;;;5062069;28;20037;-53
2023/04/19 08:27:22;;;;;;;9.75;4.35;;;12.10;99.90;;;;;;5067059;28;20044;-53
2023/04/19 08:29:48;;;;;;;9.50;4.80;;;12.20;99.90;;;;;;5057655;28;20048;-52
2023/04/19 08:32:15;;;;;;;9.60;4.93;;;12.40;99.90;;;;;;5064036;28;20429;-50
2023/04/19 08:34:40;;;;;;;6.45;4.32;;;12.50;99.90;;;;;;5056251;28;20132;-50
2023/04/19 08:37:06;;;;;;;8.38;4.40;;;12.40;99.90;;;;;;5055023;28;20091;-53
2023/04/19 08:39:32;;;;;;;8.32;4.20;;;12.60;99.90;;;;;;5065868;28;20646;-51
2023/04/19 08:42:06;;;;;;;10.60;4.05;;;12.40;99.90;;;;;;5062942;28;20516;-52
2023/04/19 08:44:32;;;;;;;10.93;5.35;;;12.50;99.90;;;;;;5065009;28;20542;-50
2023/04/19 08:46:59;;;;;;;11.73;5.20;;;12.50;99.90;;;;;;5055698;28;20044;-50
2023/04/19 08:49:27;;;;;;;8.73;4.25;;;12.60;99.90;;;;;;5075297;28;20186;-49
2023/04/19 08:51:54;;;;;;;8.20;4.35;;;12.50;99.90;;;;;;5071022;28;20436;-51
2023/04/19 08:54:20;;;;;;;6.88;4.15;;;12.40;99.90;;;;;;5067562;28;20032;-47
2023/04/19 08:56:46;;;;;;;10.30;5.80;;;12.40;99.90;;;;;;5063425;28;20043;-51
2023/04/19 08:59:12;;;;;;;28.33;13.57;;;12.30;99.90;;;;;;5063795;28;20040;-51
2023/04/19 09:01:39;;;;;;;10.07;4.22;;;12.40;99.90;;;;;;5066354;28;20157;-48
2023/04/19 09:04:06;;;;;;;8.23;3.85;;;12.10;99.90;;;;;;5059829;28;20499;-49
2023/04/19 09:06:39;;;;;;;7.43;3.90;;;12.20;99.90;;;;;;5062329;28;20473;-51
2023/04/19 09:09:21;;;;;;;8.07;3.35;;;12.40;99.90;;;;;;5073414;28;20089;-48
2023/04/19 09:11:47;;;;;;;8.40;3.65;;;12.00;99.90;;;;;;5060868;28;20040;-49
2023/04/19 09:14:15;;;;;;;5.70;3.53;;;12.30;99.90;;;;;;5068713;28;20040;-48
2023/04/19 09:16:41;;;;;;;12.10;6.13;;;12.20;99.90;;;;;;5075596;28;20086;-53
2023/04/19 09:19:15;;;;;;;6.80;3.85;;;12.20;99.90;;;;;;5063757;28;20207;-52
2023/04/19 09:21:41;;;;;;;8.70;3.80;;;12.50;99.90;;;;;;5065120;28;20058;-52
2023/04/19 09:24:07;;;;;;;11.75;3.90;;;12.40;99.90;;;;;;5058481;28;20398;-49
2023/04/19 09:26:33;;;;;;;6.65;2.92;;;12.50;99.90;;;;;;5067948;28;20037;-51
2023/04/19 09:29:06;;;;;;;6.65;3.28;;;12.60;99.90;;;;;;5065277;28;20492;-53
2023/04/19 09:31:36;;;;;;;9.15;3.60;;;12.50;99.90;;;;;;5060573;27;20039;-55
2023/04/19 09:34:16;;;;;;;12.32;3.50;;;12.60;99.90;;;;;;5078701;28;20032;-51
2023/04/19 09:36:41;;;;;;;7.95;3.60;;;12.60;99.90;;;;;;5070781;28;20056;-52
2023/04/19 09:39:08;;;;;;;12.60;3.25;;;12.70;99.90;;;;;;5063744;28;20064;-50
2023/04/19 09:41:36;;;;;;;9.98;3.22;;;12.50;99.90;;;;;;5071824;28;20043;-53
2023/04/19 09:44:14;;;;;;;5.15;2.70;;;12.50;99.90;;;;;;5079588;28;20114;-51
2023/04/19 09:46:41;;;;;;;5.28;2.83;;;12.60;99.90;;;;;;5070149;28;20036;-53
2023/04/19 09:49:16;;;;;;;6.90;3.38;;;12.40;99.90;;;;;;5071130;28;20538;-53
2023/04/19 09:51:48;;;;;;;6.72;3.08;;;12.60;99.90;;;;;;5070097;28;20103;-52
2023/04/19 09:54:16;;;;;;;7.65;3.28;;;12.70;99.90;;;;;;5065596;28;20040;-53
2023/04/19 09:56:42;;;;;;;5.80;3.13;;;12.80;99.90;;;;;;5064790;28;20437;-52
2023/04/19 09:59:09;;;;;;;7.57;2.70;;;12.70;99.90;;;;;;5067580;28;20059;-50
2023/04/19 10:01:56;;;;;;;7.22;2.85;;;12.70;99.90;;;;;;5069673;28;20070;-52
2023/04/19 10:04:22;;;;;;;5.57;2.70;;;12.50;99.90;;;;;;5061833;28;20049;-53
2023/04/19 10:06:52;;;;;;;8.20;2.70;;;12.70;99.90;;;;;;5072190;28;20150;-51
2023/04/19 10:09:19;;;;;;;9.38;2.80;;;12.80;99.90;;;;;;5076685;28;20036;-53
2023/04/19 10:11:49;;;;;;;5.88;2.28;;;13.00;99.90;;;;;;5063910;27;20029;-51
2023/04/19 10:14:17;;;;;;;7.28;2.35;;;12.60;99.90;;;;;;5064735;28;20424;-51
2023/04/19 10:16:42;;;;;;;4.55;2.30;;;12.40;99.90;;;;;;5063590;28;20577;-52
2023/04/19 10:19:10;;;;;;;3.38;2.20;;;12.50;99.90;;;;;;5063034;28;20163;-51
2023/04/19 10:21:37;;;;;;;6.53;2.50;;;12.70;99.90;;;;;;5067943;28;20051;-54
2023/04/19 10:24:03;;;;;;;6.53;2.15;;;12.60;99.90;;;;;;5057954;27;20044;-50
2023/04/19 10:26:29;;;;;;;5.68;2.65;;;12.70;99.90;;;;;;5075415;27;20028;-50
2023/04/19 10:28:56;;;;;;;3.90;2.33;;;12.80;99.90;;;;;;5074729;27;20063;-51
2023/04/19 10:31:25;;;;;;;4.13;2.50;;;12.80;99.90;;;;;;5065050;28;20279;-52
2023/04/19 10:33:50;;;;;;;7.75;2.65;;;12.90;99.90;;;;;;5062467;28;20056;-52
2023/04/19 10:36:17;;;;;;;8.85;2.65;;;12.90;99.90;;;;;;5068839;28;20487;-52
2023/04/19 10:38:48;;;;;;;5.07;2.60;;;12.80;97.00;;;;;;5057086;28;20029;-52
2023/04/19 10:41:18;;;;;;;5.72;1.95;;;13.00;99.90;;;;;;5069458;28;20029;-53
2023/04/19 10:43:46;;;;;;;8.07;2.78;;;13.00;96.90;;;;;;5073053;28;20325;-52
2023/04/19 10:46:20;;;;;;;6.50;2.90;;;12.60;97.30;;;;;;5088134;27;20104;-52
2023/04/19 10:48:59;;;;;;;6.32;2.25;;;12.70;98.90;;;;;;5071853;28;20036;-49
2023/04/19 10:51:32;;;;;;;4.53;2.67;;;12.50;96.80;;;;;;5071241;28;20036;-52
2023/04/19 10:54:08;;;;;;;10.27;2.60;;;12.50;95.90;;;;;;5065666;28;20340;-52
2023/04/19 10:56:39;;;;;;;8.18;2.90;;;12.50;96.00;;;;;;5068279;28;20041;-53
2023/04/19 10:59:11;;;;;;;6.55;2.72;;;12.40;95.80;;;;;;5062200;27;20033;-51
2023/04/19 11:01:42;;;;;;;7.88;3.00;;;12.50;97.70;;;;;;5056937;28;20040;-51
2023/04/19 11:04:10;;;;;;;6.13;2.90;;;12.80;99.10;;;;;;5070557;28;20087;-53
2023/04/19 11:06:51;;;;;;;5.55;2.33;;;12.70;97.40;;;;;;5073786;28;20061;-52
2023/04/19 11:09:24;;;;;;;7.07;2.97;;;12.40;96.50;;;;;;5055163;28;20041;-48
2023/04/19 11:11:51;;;;;;;6.38;3.05;;;12.40;96.80;;;;;;5068020;28;20084;-52
2023/04/19 11:14:19;;;;;;;6.93;2.78;;;12.60;98.50;;;;;;5067570;28;20028;-52
2023/04/19 11:16:45;;;;;;;6.30;2.80;;;12.90;99.20;;;;;;5076048;28;20438;-52
2023/04/19 11:19:17;;;;;;;7.72;2.38;;;13.10;98.90;;;;;;5065047;28;20036;-53
2023/04/19 11:21:47;;;;;;;11.43;3.63;;;13.00;95.80;;;;;;5066247;28;20090;-52
2023/04/19 11:24:15;;;;;;;4.40;2.70;;;12.70;98.80;;;;;;5073388;28;20039;-51
2023/04/19 11:26:45;;;;;;;5.03;2.50;;;12.60;94.80;;;;;;5074069;28;20701;-50
2023/04/19 11:29:11;;;;;;;4.22;2.70;;;12.40;95.50;;;;;;5066836;28;20397;-51
2023/04/19 11:31:37;;;;;;;6.38;3.17;;;12.50;94.50;;;;;;5079500;28;20032;-49
2023/04/19 11:34:03;;;;;;;8.15;3.10;;;12.60;94.60;;;;;;5070788;28;20084;-52
2023/04/19 11:36:35;;;;;;;6.38;2.97;;;12.80;95.90;;;;;;5064059;28;20037;-53
2023/04/19 11:39:04;;;;;;;5.95;2.95;;;12.80;96.40;;;;;;5072886;28;20036;-54
2023/04/19 11:41:37;;;;;;;5.60;3.00;;;12.90;96.10;;;;;;5065592;28;20235;-51
2023/04/19 11:44:03;;;;;;;6.78;3.08;;;12.90;95.90;;;;;;5071132;28;20054;-52
2023/04/19 11:46:28;;;;;;;6.65;2.53;;;13.10;97.10;;;;;;5069635;28;20508;-51
2023/04/19 11:48:54;;;;;;;6.68;2.88;;;12.80;93.50;;;;;;5069693;27;20539;-51
2023/04/19 11:51:20;;;;;;;6.05;3.13;;;12.70;95.00;;;;;;5052081;28;20093;-51
2023/04/19 11:53:46;;;;;;;8.05;2.85;;;12.90;94.20;;;;;;5065448;28;20180;-53
2023/04/19 11:56:13;;;;;;;4.35;2.80;;;13.00;94.70;;;;;;5063805;28;20063;-52
2023/04/19 11:58:50;;;;;;;5.10;2.67;;;13.00;93.50;;;;;;5067565;27;20560;-51
2023/04/19 12:01:20;;;;;;;3.17;2.45;;;13.00;93.70;;;;;;5065405;27;20394;-52
2023/04/19 12:03:47;;;;;;;4.65;2.78;;;13.10;92.70;;;;;;5065762;28;20518;-53
2023/04/19 12:06:15;;;;;;;6.13;2.83;;;13.00;91.10;;;;;;5072624;28;20031;-54
2023/04/19 12:08:47;;;;;;;5.30;2.85;;;13.00;92.60;;;;;;5081757;28;20105;-51
2023/04/19 12:11:14;;;;;;;8.73;3.13;;;13.10;92.70;;;;;;5069271;28;20414;-52
2023/04/19 12:13:40;;;;;;;6.38;2.63;;;13.00;91.80;;;;;;5068956;28;20033;-51
2023/04/19 12:16:06;;;;;;;6.03;3.25;;;12.90;88.60;;;;;;5070377;28;20036;-52
2023/04/19 12:18:49;;;;;;;5.47;2.78;;;13.10;90.70;;;;;;5075518;28;20729;-52
2023/04/19 12:21:25;;;;;;;10.35;3.35;;;13.20;91.20;;;;;;5070874;28;20033;-53
2023/04/19 12:23:56;;;;;;;8.55;3.53;;;13.20;91.10;;;;;;5067930;28;20044;-53
2023/04/19 12:26:22;;;;;;;5.82;3.15;;;13.30;91.30;;;;;;5065490;28;20040;-52
2023/04/19 12:28:47;;;;;;;7.22;3.33;;;13.30;90.70;;;;;;5068965;28;20072;-54
2023/04/19 12:31:13;;;;;;;8.25;3.25;;;13.30;93.20;;;;;;5076186;28;20123;-52
2023/04/19 12:33:39;;;;;;;8.10;3.00;;;13.40;91.20;;;;;;5063920;28;20043;-52
2023/04/19 12:36:05;;;;;;;6.60;3.22;;;13.50;91.50;;;;;;5059725;28;20032;-53